Portada
METAR-TAF:

METAR-TAF

Aeroports :

Pompano Beach Airpark

Pompano Beach, Florida, Estats Units d'Amèrica

latitud: 26-14-44N, longitud: 080-06-41W, altitud: 6 m

Observació

L'informe es va fer fa 45 minuts, a les 21:53 UTC
Vent 12 kt del Oest/Nord-Oest
Temperatura 18°C
Humitat 39%
Pressió 1022 hPa
Visibilitat: 16.1 km
Cel clar

METAR: KPMP 282153Z 30012KT 10SM CLR 18/04 A3019 RMK AO2 SLP223 T01830039

Hora: 17:38 (22:38 UTC)


TAF: manca

Observacions i pronòstics meteorològics de més de 4000 aeroports (METAR i TAF).

Les estacions disponibles són els punts grocs i vermells al mapa.

Posi el ratolí al punt desitjat per veure el nom de l'estació.

Feu clic per veure les observacions i els pronòstics meteorològics.

Per canviar el mapa: feu clic els botons verds amb una creu de color negre per apropar; al botó verd amb un guió per allunyar la imatge; o en les fletxes verdes per a mapes adjacents.


METAR-TAF: